James L. Oberstar — WDC6154 — position and weather

sailwx.info

Track history (hours):
 
Tides and Currents Weather Stations Pressure Air Temp Water Temp Dewpoint Dewpoint Depression Visibility Wind Speed Wind Dir Waves Ship Positions

James L. Oberstar

Owner: Destin Trading Corporation, harahan, LA. More information available from US FCC via Universal Licensing System and Coast Guard Vessel Documentation Center.

Last reported at 2018-Feb-19 18:03 UTC. Time now 2018-Feb-20 14:02 UTC.
Position N 29°21' W 094°49'.

Length 26 m; draft 3 m.

Type: Towing. MMSI: 367052120.

Date/timePositionNaut miles runAvg speedWind from/ knotsBaromVisibWave heightAir tempDewpointWater temp
2018-Feb-19 18:03N 29°21' W 094°49'0 4.9
2018-Feb-19 18:00N 29°21' W 094°49'3 5.9
2018-Feb-19 17:27N 29°19' W 094°52'3 5.3
2018-Feb-19 16:51N 29°17' W 094°56'2 5.8
2018-Feb-19 16:29N 29°17' W 094°58'1 2.6
2018-Feb-19 16:00N 29°16' W 094°59'1 1.4
2018-Feb-19 15:20N 29°16' W 094°60'2 4.9
2018-Feb-19 14:58N 29°14' W 095°01'2 4.3
2018-Feb-19 14:29N 29°12' W 095°03'2 4.8
2018-Feb-19 14:00N 29°11' W 095°05'2 4.5
2018-Feb-19 13:29N 29°10' W 095°07'3 5.4
2018-Feb-19 13:00N 29°09' W 095°10'18 3.1
2018-Feb-19 07:17N 28°55' W 095°22'0 0.0
2018-Feb-19 07:00N 28°55' W 095°22'0 0.0
2018-Feb-19 06:30N 28°55' W 095°22'0 0.0
2018-Feb-19 06:00N 28°55' W 095°22'0 0.0
2018-Feb-19 05:29N 28°55' W 095°22'13 0.6
2018-Feb-18 08:57N 28°48' W 095°34'75 1.5
2018-Feb-16 06:26N 28°12' W 096°50'0 0.0
2018-Feb-16 05:43N 28°12' W 096°50'0 0.2
2018-Feb-16 05:03N 28°12' W 096°50'0 0.0
2018-Feb-16 04:54N 28°12' W 096°50'0 0.0
2018-Feb-16 04:16N 28°12' W 096°50'0 0.0
2018-Feb-16 03:54N 28°12' W 096°50'0 0.0
2018-Feb-16 01:56N 28°12' W 096°50'0 0.1
2018-Feb-16 01:24N 28°12' W 096°50'0 0.0
2018-Feb-16 01:00N 28°12' W 096°50'2 3.7
2018-Feb-16 00:29N 28°11' W 096°52'2 3.8
2018-Feb-16 00:00N 28°10' W 096°53'2 2.2
2018-Feb-15 23:19N 28°08' W 096°54'2 4.9
2018-Feb-15 22:59N 28°07' W 096°55'3 5.4
2018-Feb-15 22:29N 28°05' W 096°57'3 6.0
2018-Feb-15 21:57N 28°02' W 096°59'3 5.8
2018-Feb-15 21:30N 28°00' W 097°01'3 5.7
2018-Feb-15 20:57N 27°58' W 097°03'2 4.0
2018-Feb-15 20:29N 27°56' W 097°04'3 6.0
2018-Feb-15 20:00N 27°53' W 097°03'24 0.6
2018-Feb-14 05:27N 27°49' W 097°29'0 0.0
2018-Feb-14 04:57N 27°49' W 097°29'5 0.5
2018-Feb-13 18:22N 27°49' W 097°24'4 7.9
2018-Feb-13 17:52N 27°49' W 097°19'3 7.9
2018-Feb-13 17:29N 27°49' W 097°16'4 7.6
2018-Feb-13 17:00N 27°49' W 097°12'4 7.2
2018-Feb-13 16:29N 27°50' W 097°08'3 6.6
2018-Feb-13 15:59N 27°51' W 097°04'4 7.6
2018-Feb-13 15:29N 27°54' W 097°03'3 6.7
2018-Feb-13 15:00N 27°57' W 097°03'3 5.7
2018-Feb-13 14:30N 27°60' W 097°02'3 6.4
2018-Feb-13 14:00N 28°03' W 096°60'3 6.1
2018-Feb-13 13:27N 28°05' W 096°57'3 6.0
2018-Feb-13 13:00N 28°07' W 096°55'3 6.6
2018-Feb-13 12:29N 28°10' W 096°53'3 6.5
2018-Feb-13 12:01N 28°12' W 096°50'0 0.1
2018-Feb-13 11:26N 28°12' W 096°50'130 3.2
2018-Feb-11 18:20N 29°32' W 094°54'3 7.6
2018-Feb-11 18:00N 29°35' W 094°56'4 7.6
2018-Feb-11 17:30N 29°38' W 094°58'4 8.0
2018-Feb-11 16:59N 29°42' W 094°60'  
Track history (hours):
 
Tides and Currents Weather Stations Pressure Air Temp Water Temp Dewpoint Dewpoint Depression Visibility Wind Speed Wind Dir Waves Ship Positions

James L. Oberstar

Owner: Destin Trading Corporation, harahan, LA. More information available from US FCC via Universal Licensing System and Coast Guard Vessel Documentation Center.

Last reported at 2018-Feb-19 18:03 UTC. Time now 2018-Feb-20 14:02 UTC.
Position N 29°21' W 094°49'.

Length 26 m; draft 3 m.

Type: Towing. MMSI: 367052120.

Date/timePositionNaut miles runAvg speedWind from/ knotsBaromVisibWave heightAir tempDewpointWater temp
2018-Feb-19 18:03N 29°21' W 094°49'0 4.9
2018-Feb-19 18:00N 29°21' W 094°49'3 5.9
2018-Feb-19 17:27N 29°19' W 094°52'3 5.3
2018-Feb-19 16:51N 29°17' W 094°56'2 5.8
2018-Feb-19 16:29N 29°17' W 094°58'1 2.6
2018-Feb-19 16:00N 29°16' W 094°59'1 1.4
2018-Feb-19 15:20N 29°16' W 094°60'2 4.9
2018-Feb-19 14:58N 29°14' W 095°01'2 4.3
2018-Feb-19 14:29N 29°12' W 095°03'2 4.8
2018-Feb-19 14:00N 29°11' W 095°05'2 4.5
2018-Feb-19 13:29N 29°10' W 095°07'3 5.4
2018-Feb-19 13:00N 29°09' W 095°10'18 3.1
2018-Feb-19 07:17N 28°55' W 095°22'0 0.0
2018-Feb-19 07:00N 28°55' W 095°22'0 0.0
2018-Feb-19 06:30N 28°55' W 095°22'0 0.0
2018-Feb-19 06:00N 28°55' W 095°22'0 0.0
2018-Feb-19 05:29N 28°55' W 095°22'13 0.6
2018-Feb-18 08:57N 28°48' W 095°34'75 1.5
2018-Feb-16 06:26N 28°12' W 096°50'0 0.0
2018-Feb-16 05:43N 28°12' W 096°50'0 0.2
2018-Feb-16 05:03N 28°12' W 096°50'0 0.0
2018-Feb-16 04:54N 28°12' W 096°50'0 0.0
2018-Feb-16 04:16N 28°12' W 096°50'0 0.0
2018-Feb-16 03:54N 28°12' W 096°50'0 0.0
2018-Feb-16 01:56N 28°12' W 096°50'0 0.1
2018-Feb-16 01:24N 28°12' W 096°50'0 0.0
2018-Feb-16 01:00N 28°12' W 096°50'2 3.7
2018-Feb-16 00:29N 28°11' W 096°52'2 3.8
2018-Feb-16 00:00N 28°10' W 096°53'2 2.2
2018-Feb-15 23:19N 28°08' W 096°54'2 4.9
2018-Feb-15 22:59N 28°07' W 096°55'3 5.4
2018-Feb-15 22:29N 28°05' W 096°57'3 6.0
2018-Feb-15 21:57N 28°02' W 096°59'3 5.8
2018-Feb-15 21:30N 28°00' W 097°01'3 5.7
2018-Feb-15 20:57N 27°58' W 097°03'2 4.0
2018-Feb-15 20:29N 27°56' W 097°04'3 6.0
2018-Feb-15 20:00N 27°53' W 097°03'24 0.6
2018-Feb-14 05:27N 27°49' W 097°29'0 0.0
2018-Feb-14 04:57N 27°49' W 097°29'5 0.5
2018-Feb-13 18:22N 27°49' W 097°24'4 7.9
2018-Feb-13 17:52N 27°49' W 097°19'3 7.9
2018-Feb-13 17:29N 27°49' W 097°16'4 7.6
2018-Feb-13 17:00N 27°49' W 097°12'4 7.2
2018-Feb-13 16:29N 27°50' W 097°08'3 6.6
2018-Feb-13 15:59N 27°51' W 097°04'4 7.6
2018-Feb-13 15:29N 27°54' W 097°03'3 6.7
2018-Feb-13 15:00N 27°57' W 097°03'3 5.7
2018-Feb-13 14:30N 27°60' W 097°02'3 6.4
2018-Feb-13 14:00N 28°03' W 096°60'3 6.1
2018-Feb-13 13:27N 28°05' W 096°57'3 6.0
2018-Feb-13 13:00N 28°07' W 096°55'3 6.6
2018-Feb-13 12:29N 28°10' W 096°53'3 6.5
2018-Feb-13 12:01N 28°12' W 096°50'0 0.1
2018-Feb-13 11:26N 28°12' W 096°50'130 3.2
2018-Feb-11 18:20N 29°32' W 094°54'3 7.6
2018-Feb-11 18:00N 29°35' W 094°56'4 7.6
2018-Feb-11 17:30N 29°38' W 094°58'4 8.0
2018-Feb-11 16:59N 29°42' W 094°60'  

Dump ship's entire track history